createdAt,value
2019-05-28T18:35:55.870Z,17.95
2019-05-28T18:36:50.020Z,17.92
2019-05-28T18:37:50.020Z,17.79
2019-05-28T18:38:49.764Z,17.8
2019-05-28T18:39:49.527Z,17.71
2019-05-28T18:40:50.046Z,17.74
2019-05-28T18:41:49.755Z,17.65
2019-05-28T18:42:50.003Z,17.63
2019-05-28T18:43:50.003Z,17.65
2019-05-28T18:44:50.065Z,17.59
2019-05-28T18:45:51.421Z,17.56
2019-05-28T18:46:53.037Z,17.51
2019-05-28T18:47:49.506Z,17.41
2019-05-28T18:48:49.991Z,17.45
2019-05-28T18:49:49.479Z,17.38
2019-05-28T18:50:49.552Z,17.41
2019-05-28T18:51:49.491Z,17.42
2019-05-28T18:52:50.040Z,17.34
2019-05-28T18:53:49.994Z,17.41
2019-05-28T18:54:49.738Z,17.39
2019-05-28T18:55:49.720Z,17.33
2019-05-28T18:56:53.012Z,17.42
2019-05-28T18:57:59.339Z,17.34
2019-05-28T18:58:49.741Z,17.33
2019-05-28T18:59:49.911Z,17.27
2019-05-28T19:00:49.730Z,17.31
2019-05-28T19:01:49.731Z,17.23
2019-05-28T19:02:49.750Z,17.2
2019-05-28T19:03:49.995Z,17.16
2019-05-28T19:04:49.723Z,17.16
2019-05-28T19:05:50.977Z,17.2
2019-05-28T19:06:49.722Z,17.24
2019-05-28T19:07:51.177Z,17.19
2019-05-28T19:08:50.035Z,17.19
2019-05-28T19:09:49.744Z,17.15
2019-05-28T19:10:49.461Z,17.11
2019-05-28T19:11:49.469Z,17.09
2019-05-28T19:12:49.964Z,17.09
2019-05-28T19:13:49.987Z,17.05
2019-05-28T19:14:49.749Z,17.05
2019-05-28T19:15:49.722Z,16.96
2019-05-28T19:16:49.995Z,16.96
2019-05-28T19:17:50.037Z,16.84
2019-05-28T19:18:55.311Z,16.83
2019-05-28T19:19:49.980Z,16.75
2019-05-28T19:20:49.735Z,16.74
2019-05-28T19:21:49.442Z,16.79
2019-05-28T19:22:49.696Z,16.78
2019-05-28T19:23:49.690Z,16.72
2019-05-28T19:24:49.716Z,16.64
2019-05-28T19:25:49.684Z,16.53
2019-05-28T19:26:49.949Z,16.58
2019-05-28T19:27:49.695Z,16.56
2019-05-28T19:28:51.088Z,16.47
2019-05-28T19:29:54.712Z,16.42
2019-05-28T19:30:52.859Z,16.38
2019-05-28T19:31:49.441Z,16.43
2019-05-28T19:32:49.694Z,16.31
2019-05-28T19:33:49.420Z,16.28
2019-05-28T19:34:53.388Z,16.28
2019-05-28T19:35:49.432Z,16.32
2019-05-28T19:36:49.683Z,16.32
2019-05-28T19:37:49.881Z,16.31
2019-05-28T19:38:50.997Z,16.28
2019-05-28T19:39:52.902Z,16.2
2019-05-28T19:40:49.649Z,16.15
2019-05-28T19:42:02.090Z,16.2
2019-05-28T19:42:49.377Z,16.15
2019-05-28T19:43:49.901Z,16.17
2019-05-28T19:44:49.407Z,16.13
2019-05-28T19:45:49.607Z,16.16
2019-05-28T19:46:49.909Z,16.08
2019-05-28T19:47:49.677Z,16.01
2019-05-28T19:48:49.640Z,16.08
2019-05-28T19:49:49.639Z,16.08
2019-05-28T19:50:51.446Z,16.05
2019-05-28T19:51:49.851Z,16.01
2019-05-28T19:52:49.859Z,16.08
2019-05-28T19:53:49.837Z,16.09
2019-05-28T19:54:49.834Z,15.98
2019-05-28T19:55:49.832Z,15.94
2019-05-28T19:56:49.582Z,15.95
2019-05-28T19:57:49.826Z,15.84
2019-05-28T19:58:49.346Z,15.84
2019-05-28T19:59:49.834Z,15.84
2019-05-28T20:00:49.594Z,15.86
2019-05-28T20:01:52.866Z,15.86
2019-05-28T20:02:49.569Z,15.83
2019-05-28T20:03:49.823Z,15.86
2019-05-28T20:04:49.827Z,15.83
2019-05-28T20:05:49.843Z,15.8
2019-05-28T20:06:49.609Z,15.79
2019-05-28T20:07:49.559Z,15.8
2019-05-28T20:08:49.610Z,15.88
2019-05-28T20:09:49.996Z,15.73
2019-05-28T20:10:52.856Z,15.75
2019-05-28T20:11:50.662Z,15.7
2019-05-28T20:12:52.588Z,15.7
2019-05-28T20:13:49.803Z,15.72
2019-05-28T20:14:49.824Z,15.73
2019-05-28T20:15:49.814Z,15.73
2019-05-28T20:16:51.183Z,15.68
2019-05-28T20:17:52.399Z,15.79
2019-05-28T20:18:51.091Z,15.68
2019-05-28T20:19:51.305Z,15.67
2019-05-28T20:20:50.300Z,15.61
2019-05-28T20:21:55.681Z,15.65
2019-05-28T20:22:53.780Z,15.67
2019-05-28T20:23:54.481Z,15.67
2019-05-28T20:24:50.345Z,15.68
2019-05-28T20:25:55.996Z,15.65
2019-05-28T20:26:50.096Z,15.65
2019-05-28T20:27:50.092Z,15.58
2019-05-28T20:28:49.554Z,15.61
2019-05-28T20:29:49.532Z,15.73
2019-05-28T20:30:49.782Z,15.58
2019-05-28T20:31:49.781Z,15.65
2019-05-28T20:32:49.533Z,15.58
2019-05-28T20:33:51.133Z,15.68
2019-05-28T20:34:49.524Z,15.61
2019-05-28T20:35:49.780Z,15.62
2019-05-28T20:36:49.548Z,15.65
2019-05-28T20:37:49.255Z,15.61
2019-05-28T20:38:49.775Z,15.57
2019-05-28T20:39:50.040Z,15.55
2019-05-28T20:40:49.773Z,15.54
2019-05-28T20:41:49.266Z,15.52
2019-05-28T20:42:49.501Z,15.55
2019-05-28T20:43:49.247Z,15.57
2019-05-28T20:44:52.522Z,15.49
2019-05-28T20:45:49.755Z,15.42
2019-05-28T20:46:49.777Z,15.49
2019-05-28T20:47:49.738Z,15.42
2019-05-28T20:48:49.478Z,15.44
2019-05-28T20:49:49.477Z,15.47
2019-05-28T20:50:49.738Z,15.46
2019-05-28T20:51:52.075Z,15.47
2019-05-28T20:52:49.252Z,15.46
2019-05-28T20:53:49.479Z,15.36
2019-05-28T20:54:51.563Z,15.35
2019-05-28T20:55:52.079Z,15.39
2019-05-28T20:56:58.877Z,15.37
2019-05-28T20:57:49.469Z,15.35
2019-05-28T20:58:49.839Z,15.35
2019-05-28T20:59:49.573Z,15.36
2019-05-28T21:00:49.940Z,15.39
2019-05-28T21:01:49.852Z,15.35
2019-05-28T21:02:50.003Z,15.43
2019-05-28T21:03:50.055Z,15.36
2019-05-28T21:04:50.405Z,15.42
2019-05-28T21:05:53.176Z,15.35
2019-05-28T21:06:54.565Z,15.43
2019-05-28T21:07:50.336Z,15.36
2019-05-28T21:08:50.240Z,15.29
2019-05-28T21:09:50.284Z,15.33
2019-05-28T21:10:50.941Z,15.28
2019-05-28T21:11:50.528Z,15.29
2019-05-28T21:12:50.689Z,15.29
2019-05-28T21:13:50.699Z,15.33
2019-05-28T21:14:51.181Z,15.31
2019-05-28T21:15:50.948Z,15.27
2019-05-28T21:16:55.048Z,15.25
2019-05-28T21:17:51.038Z,15.24
2019-05-28T21:18:49.686Z,15.18
2019-05-28T21:19:49.665Z,15.1
2019-05-28T21:20:49.466Z,15.18
2019-05-28T21:21:49.710Z,15.1
2019-05-28T21:22:49.699Z,15.06
2019-05-28T21:23:49.745Z,15.09
2019-05-28T21:24:49.960Z,15.11
2019-05-28T21:25:49.989Z,15.19
2019-05-28T21:26:50.002Z,15.17
2019-05-28T21:27:52.497Z,15.14
2019-05-28T21:28:50.153Z,15.22
2019-05-28T21:29:49.963Z,15.14
2019-05-28T21:30:50.549Z,15.19
2019-05-28T21:31:50.385Z,15.15
2019-05-28T21:32:50.534Z,15.18
2019-05-28T21:33:49.146Z,15.18
2019-05-28T21:34:50.945Z,15.17
2019-05-28T21:35:50.775Z,15.24
2019-05-28T21:36:49.388Z,15.25
2019-05-28T21:37:50.974Z,15.15
2019-05-28T21:38:53.130Z,15.24
2019-05-28T21:39:49.378Z,15.28
2019-05-28T21:40:49.619Z,15.18
2019-05-28T21:41:49.435Z,15.19
2019-05-28T21:43:11.681Z,15.17
2019-05-28T21:43:49.618Z,15.27
2019-05-28T21:44:49.612Z,15.21
2019-05-28T21:45:49.126Z,15.22
2019-05-28T21:46:49.366Z,15.22
2019-05-28T21:47:49.273Z,15.21
2019-05-28T21:48:52.369Z,15.22
2019-05-28T21:49:49.375Z,15.19
2019-05-28T21:50:49.363Z,15.15
2019-05-28T21:51:49.599Z,15.04
2019-05-28T21:52:49.107Z,15.09
2019-05-28T21:53:49.159Z,15
2019-05-28T21:54:49.356Z,14.92
2019-05-28T21:55:49.598Z,15.02
2019-05-28T21:56:49.344Z,14.94
2019-05-28T21:57:49.612Z,14.96
2019-05-28T21:58:49.591Z,14.91
2019-05-28T21:59:53.551Z,14.92
2019-05-28T22:00:49.102Z,14.85
2019-05-28T22:01:49.343Z,14.73
2019-05-28T22:02:49.334Z,14.69
2019-05-28T22:03:49.344Z,14.62
2019-05-28T22:04:49.368Z,14.72
2019-05-28T22:05:49.335Z,14.55
2019-05-28T22:06:49.322Z,14.58
2019-05-28T22:07:49.067Z,14.54
2019-05-28T22:08:49.342Z,14.51
2019-05-28T22:09:49.636Z,14.47
2019-05-28T22:10:52.338Z,14.48
2019-05-28T22:11:49.315Z,14.5
2019-05-28T22:12:49.322Z,14.4
2019-05-28T22:13:49.562Z,14.41
2019-05-28T22:14:49.301Z,14.37
2019-05-28T22:15:49.552Z,14.33
2019-05-28T22:16:49.093Z,14.35
2019-05-28T22:17:49.537Z,14.36
2019-05-28T22:18:49.542Z,14.33
2019-05-28T22:19:49.300Z,14.32
2019-05-28T22:20:49.902Z,14.36
2019-05-28T22:21:52.564Z,14.32
2019-05-28T22:22:49.289Z,14.23
2019-05-28T22:23:49.531Z,14.22
2019-05-28T22:24:49.283Z,14.22
2019-05-28T22:25:49.271Z,14.15
2019-05-28T22:26:49.014Z,14.22
2019-05-28T22:27:49.510Z,14.17
2019-05-28T22:28:49.510Z,14.07
2019-05-28T22:29:49.529Z,14.15
2019-05-28T22:30:49.269Z,14.05
2019-05-28T22:31:52.297Z,14.03
2019-05-28T22:32:49.286Z,14.05
2019-05-28T22:33:49.259Z,13.87
2019-05-28T22:34:49.249Z,13.93
2019-05-28T22:35:49.486Z,13.85
2019-05-28T22:36:49.495Z,13.83
2019-05-28T22:37:49.264Z,13.78
2019-05-28T22:38:49.243Z,13.72
2019-05-28T22:39:49.494Z,13.75
2019-05-28T22:40:49.487Z,13.7
2019-05-28T22:41:49.490Z,13.7
2019-05-28T22:42:50.414Z,13.63
2019-05-28T22:43:49.214Z,13.52
2019-05-28T22:44:49.220Z,13.54
2019-05-28T22:45:49.213Z,13.53
2019-05-28T22:46:48.985Z,13.52
2019-05-28T22:47:49.215Z,13.53
2019-05-28T22:48:49.453Z,13.5
2019-05-28T22:49:49.476Z,13.46
2019-05-28T22:50:49.469Z,13.47
2019-05-28T22:51:49.199Z,13.41
2019-05-28T22:52:49.002Z,13.44
2019-05-28T22:53:54.334Z,13.49
2019-05-28T22:54:49.221Z,13.42
2019-05-28T22:55:49.183Z,13.44
2019-05-28T22:56:49.431Z,13.42
2019-05-28T22:57:49.439Z,13.5
2019-05-28T22:58:49.434Z,13.56
2019-05-28T22:59:49.168Z,13.5
2019-05-28T23:00:49.187Z,13.53
2019-05-28T23:01:49.191Z,13.44
2019-05-28T23:02:49.162Z,13.52
2019-05-28T23:03:49.768Z,13.53
2019-05-28T23:04:52.452Z,13.49
2019-05-28T23:05:49.153Z,13.42
2019-05-28T23:06:49.444Z,13.5
2019-05-28T23:07:49.167Z,13.47
2019-05-28T23:08:49.395Z,13.52
2019-05-28T23:09:49.396Z,13.5
2019-05-28T23:10:49.388Z,13.49
2019-05-28T23:11:49.392Z,13.54
2019-05-28T23:12:49.141Z,13.6
2019-05-28T23:13:51.473Z,13.68
2019-05-28T23:14:52.152Z,13.7
2019-05-28T23:15:49.131Z,13.71
2019-05-28T23:16:49.119Z,13.68
2019-05-28T23:17:49.369Z,13.71
2019-05-28T23:18:49.121Z,13.71
2019-05-28T23:19:49.119Z,13.72
2019-05-28T23:20:49.127Z,13.74
2019-05-28T23:21:49.433Z,13.63
2019-05-28T23:22:49.339Z,13.79
2019-05-28T23:23:49.343Z,13.71
2019-05-28T23:24:49.395Z,13.67
2019-05-28T23:25:55.362Z,13.67
2019-05-28T23:26:48.851Z,13.7
2019-05-28T23:27:49.094Z,13.67
2019-05-28T23:28:49.321Z,13.67
2019-05-28T23:29:49.073Z,13.67
2019-05-28T23:30:49.319Z,13.72
2019-05-28T23:31:49.063Z,13.62
2019-05-28T23:32:49.317Z,13.67
2019-05-28T23:33:49.314Z,13.68
2019-05-28T23:34:49.062Z,13.56
2019-05-28T23:35:49.314Z,13.59
2019-05-28T23:36:52.092Z,13.56
2019-05-28T23:37:49.047Z,13.72
2019-05-28T23:38:48.797Z,13.59
2019-05-28T23:39:49.045Z,13.57
2019-05-28T23:40:49.286Z,13.71
2019-05-28T23:41:48.791Z,13.63
2019-05-28T23:42:48.785Z,13.57
2019-05-28T23:44:03.830Z,13.56
2019-05-28T23:44:48.776Z,13.54
2019-05-28T23:45:49.331Z,13.62
2019-05-28T23:46:49.880Z,13.53
2019-05-28T23:47:52.065Z,13.56
2019-05-28T23:48:48.774Z,13.57
2019-05-28T23:49:49.250Z,13.46
2019-05-28T23:50:48.758Z,13.5
2019-05-28T23:51:49.268Z,13.49
2019-05-28T23:52:49.267Z,13.5
2019-05-28T23:53:49.019Z,13.47
2019-05-28T23:54:49.007Z,13.46
2019-05-28T23:55:48.996Z,13.47
2019-05-28T23:56:48.748Z,13.44
2019-05-28T23:57:52.284Z,13.46
2019-05-28T23:58:48.736Z,13.41
2019-05-28T23:59:48.994Z,13.5
